EDHI/XFW METAR and TAF weather

Enter ICAO airport designator
Station Type Date Time Source
EDHI METAR 2020/02/21 15:50 UTC NOAA

EDHI 211550Z 23014KT 9999 -DZ BKN031 OVC042 08/03 Q1019


Station Type Date Time Source
EDHI Decoded METAR 2020/02/21 15:50 UTC NOAA

Hamburg-Finkenwerder, Germany (EDHI) 53-32N 009-50E 13M
Feb 21, 2020 - 10:50 AM EST / 2020.02.21 1550 UTC
Wind: from the SW (230 degrees) at 16 MPH (14 KT):0
Visibility: greater than 7 mile(s):0
Sky conditions: overcast
Weather: light drizzle
Temperature: 46 F (8 C)
Dew Point: 37 F (3 C)
Relative Humidity: 70%
Pressure (altimeter): 30.09 in. Hg (1019 hPa)
ob: EDHI 211550Z 23014KT 9999 -DZ BKN031 OVC042 08/03 Q1019
cycle: 16

Station Type Date Time Source
EDHI TAF 2010/02/22 14:20 UTC NOAA

METAR EDHI 221420Z 17005KT 9999 BKN030 05/02 Q0989

Example: see airport list